sensor_id;sensor_type;location;lat;lon;timestamp;temperature;humidity
22635;DHT22;11484;50.858;4.384;2022-08-01T00:00:42;22.70;99.90
22635;DHT22;11484;50.858;4.384;2022-08-01T00:03:08;22.60;99.90
22635;DHT22;11484;50.858;4.384;2022-08-01T00:05:35;22.60;99.90
22635;DHT22;11484;50.858;4.384;2022-08-01T00:08:01;22.50;99.90
22635;DHT22;11484;50.858;4.384;2022-08-01T00:10:27;22.50;99.90
22635;DHT22;11484;50.858;4.384;2022-08-01T00:12:53;22.50;99.90
22635;DHT22;11484;50.858;4.384;2022-08-01T00:15:18;22.50;99.90
22635;DHT22;11484;50.858;4.384;2022-08-01T00:17:44;22.40;99.90
22635;DHT22;11484;50.858;4.384;2022-08-01T00:20:12;22.40;99.90
22635;DHT22;11484;50.858;4.384;2022-08-01T00:22:40;22.40;99.90
22635;DHT22;11484;50.858;4.384;2022-08-01T00:25:06;22.40;99.90
22635;DHT22;11484;50.858;4.384;2022-08-01T00:27:32;22.40;99.90
22635;DHT22;11484;50.858;4.384;2022-08-01T00:29:59;22.40;99.90
22635;DHT22;11484;50.858;4.384;2022-08-01T00:32:31;22.40;99.90
22635;DHT22;11484;50.858;4.384;2022-08-01T00:34:59;22.40;99.90
22635;DHT22;11484;50.858;4.384;2022-08-01T00:37:24;22.40;99.90
22635;DHT22;11484;50.858;4.384;2022-08-01T00:39:51;22.40;99.90
22635;DHT22;11484;50.858;4.384;2022-08-01T00:42:17;22.30;99.90
22635;DHT22;11484;50.858;4.384;2022-08-01T00:44:42;22.30;99.90
22635;DHT22;11484;50.858;4.384;2022-08-01T00:47:08;22.20;99.90
22635;DHT22;11484;50.858;4.384;2022-08-01T00:49:36;22.20;99.90
22635;DHT22;11484;50.858;4.384;2022-08-01T00:52:03;22.20;99.90
22635;DHT22;11484;50.858;4.384;2022-08-01T00:54:30;22.20;99.90
22635;DHT22;11484;50.858;4.384;2022-08-01T00:56:56;22.20;99.90
22635;DHT22;11484;50.858;4.384;2022-08-01T00:59:23;22.20;99.90
22635;DHT22;11484;50.858;4.384;2022-08-01T01:01:51;22.20;99.90
22635;DHT22;11484;50.858;4.384;2022-08-01T01:04:17;22.30;99.90
22635;DHT22;11484;50.858;4.384;2022-08-01T01:13:04;22.30;99.90
22635;DHT22;11484;50.858;4.384;2022-08-01T01:15:17;22.20;99.90
22635;DHT22;11484;50.858;4.384;2022-08-01T01:17:56;22.20;99.90
22635;DHT22;11484;50.858;4.384;2022-08-01T01:20:32;22.20;99.90
22635;DHT22;11484;50.858;4.384;2022-08-01T01:23:21;22.20;99.90
22635;DHT22;11484;50.858;4.384;2022-08-01T01:31:52;22.20;99.90
22635;DHT22;11484;50.858;4.384;2022-08-01T01:34:24;22.20;99.90
22635;DHT22;11484;50.858;4.384;2022-08-01T01:36:54;22.10;99.90
22635;DHT22;11484;50.858;4.384;2022-08-01T01:39:21;22.10;99.90
22635;DHT22;11484;50.858;4.384;2022-08-01T01:41:50;22.10;99.90
22635;DHT22;11484;50.858;4.384;2022-08-01T01:44:18;22.00;99.90
22635;DHT22;11484;50.858;4.384;2022-08-01T01:46:45;21.90;99.90
22635;DHT22;11484;50.858;4.384;2022-08-01T01:49:13;22.00;99.90
22635;DHT22;11484;50.858;4.384;2022-08-01T01:51:42;21.90;99.90
22635;DHT22;11484;50.858;4.384;2022-08-01T01:54:09;21.90;99.90
22635;DHT22;11484;50.858;4.384;2022-08-01T01:56:36;21.90;99.90
22635;DHT22;11484;50.858;4.384;2022-08-01T01:59:21;21.80;99.90
22635;DHT22;11484;50.858;4.384;2022-08-01T02:01:51;21.70;99.90
22635;DHT22;11484;50.858;4.384;2022-08-01T02:04:20;21.70;99.90
22635;DHT22;11484;50.858;4.384;2022-08-01T02:06:47;21.80;99.90
22635;DHT22;11484;50.858;4.384;2022-08-01T02:09:20;21.80;99.90
22635;DHT22;11484;50.858;4.384;2022-08-01T02:11:48;21.70;99.90
22635;DHT22;11484;50.858;4.384;2022-08-01T02:14:15;21.80;99.90
22635;DHT22;11484;50.858;4.384;2022-08-01T02:16:47;21.80;99.90
22635;DHT22;11484;50.858;4.384;2022-08-01T02:19:14;21.90;99.90
22635;DHT22;11484;50.858;4.384;2022-08-01T02:21:45;21.90;99.90
22635;DHT22;11484;50.858;4.384;2022-08-01T02:26:52;21.90;99.90
22635;DHT22;11484;50.858;4.384;2022-08-01T02:29:27;21.90;99.90
22635;DHT22;11484;50.858;4.384;2022-08-01T02:31:59;21.90;99.90
22635;DHT22;11484;50.858;4.384;2022-08-01T02:34:28;21.90;99.90
22635;DHT22;11484;50.858;4.384;2022-08-01T02:36:59;21.80;99.90
22635;DHT22;11484;50.858;4.384;2022-08-01T02:39:26;21.80;99.90
22635;DHT22;11484;50.858;4.384;2022-08-01T02:41:57;21.80;99.90
22635;DHT22;11484;50.858;4.384;2022-08-01T02:44:24;21.80;99.90
22635;DHT22;11484;50.858;4.384;2022-08-01T02:47:00;21.80;99.90
22635;DHT22;11484;50.858;4.384;2022-08-01T02:49:36;21.80;99.90
22635;DHT22;11484;50.858;4.384;2022-08-01T02:52:07;21.90;99.90
22635;DHT22;11484;50.858;4.384;2022-08-01T02:54:36;21.90;99.90
22635;DHT22;11484;50.858;4.384;2022-08-01T02:57:04;21.90;99.90
22635;DHT22;11484;50.858;4.384;2022-08-01T02:59:31;21.80;99.90
22635;DHT22;11484;50.858;4.384;2022-08-01T03:02:00;21.80;99.90
22635;DHT22;11484;50.858;4.384;2022-08-01T03:04:28;21.80;99.90
22635;DHT22;11484;50.858;4.384;2022-08-01T03:06:56;21.90;99.90
22635;DHT22;11484;50.858;4.384;2022-08-01T03:09:26;21.90;99.90
22635;DHT22;11484;50.858;4.384;2022-08-01T03:11:52;21.80;99.90
22635;DHT22;11484;50.858;4.384;2022-08-01T03:14:20;21.80;99.90
22635;DHT22;11484;50.858;4.384;2022-08-01T03:16:54;21.90;99.90
22635;DHT22;11484;50.858;4.384;2022-08-01T03:19:24;21.80;99.90
22635;DHT22;11484;50.858;4.384;2022-08-01T03:21:51;21.80;99.90
22635;DHT22;11484;50.858;4.384;2022-08-01T03:24:19;21.80;99.90
22635;DHT22;11484;50.858;4.384;2022-08-01T03:26:47;21.80;99.90
22635;DHT22;11484;50.858;4.384;2022-08-01T03:29:20;21.80;99.90
22635;DHT22;11484;50.858;4.384;2022-08-01T03:31:48;21.90;99.90
22635;DHT22;11484;50.858;4.384;2022-08-01T03:34:15;21.90;99.90
22635;DHT22;11484;50.858;4.384;2022-08-01T03:39:52;21.80;99.90
22635;DHT22;11484;50.858;4.384;2022-08-01T03:42:23;21.70;99.90
22635;DHT22;11484;50.858;4.384;2022-08-01T03:44:57;21.70;99.90
22635;DHT22;11484;50.858;4.384;2022-08-01T03:47:28;21.70;99.90
22635;DHT22;11484;50.858;4.384;2022-08-01T03:49:56;21.70;99.90
22635;DHT22;11484;50.858;4.384;2022-08-01T03:52:25;21.70;99.90
22635;DHT22;11484;50.858;4.384;2022-08-01T03:54:53;21.60;99.90
22635;DHT22;11484;50.858;4.384;2022-08-01T03:57:20;21.60;99.90
22635;DHT22;11484;50.858;4.384;2022-08-01T03:59:47;21.60;99.90
22635;DHT22;11484;50.858;4.384;2022-08-01T04:02:14;21.60;99.90
22635;DHT22;11484;50.858;4.384;2022-08-01T04:04:42;21.60;99.90
22635;DHT22;11484;50.858;4.384;2022-08-01T04:07:31;21.50;99.90
22635;DHT22;11484;50.858;4.384;2022-08-01T04:09:58;21.40;99.90
22635;DHT22;11484;50.858;4.384;2022-08-01T04:12:24;21.50;99.90
22635;DHT22;11484;50.858;4.384;2022-08-01T04:14:50;21.40;99.90
22635;DHT22;11484;50.858;4.384;2022-08-01T04:17:16;21.40;99.90
22635;DHT22;11484;50.858;4.384;2022-08-01T04:19:43;21.40;99.90
22635;DHT22;11484;50.858;4.384;2022-08-01T04:22:11;21.40;99.90
22635;DHT22;11484;50.858;4.384;2022-08-01T04:24:37;21.40;99.90
22635;DHT22;11484;50.858;4.384;2022-08-01T04:27:08;21.40;99.90
22635;DHT22;11484;50.858;4.384;2022-08-01T04:29:36;21.40;99.90
22635;DHT22;11484;50.858;4.384;2022-08-01T04:32:06;21.40;99.90
22635;DHT22;11484;50.858;4.384;2022-08-01T04:34:33;21.40;99.90
22635;DHT22;11484;50.858;4.384;2022-08-01T04:37:00;21.30;99.90
22635;DHT22;11484;50.858;4.384;2022-08-01T04:39:28;21.40;99.90
22635;DHT22;11484;50.858;4.384;2022-08-01T04:41:58;21.40;99.90
22635;DHT22;11484;50.858;4.384;2022-08-01T04:44:25;21.30;99.90
22635;DHT22;11484;50.858;4.384;2022-08-01T04:46:53;21.40;99.90
22635;DHT22;11484;50.858;4.384;2022-08-01T04:49:20;21.40;99.90
22635;DHT22;11484;50.858;4.384;2022-08-01T04:51:55;21.40;99.90
22635;DHT22;11484;50.858;4.384;2022-08-01T04:54:26;21.50;99.90
22635;DHT22;11484;50.858;4.384;2022-08-01T04:56:53;21.50;99.90
22635;DHT22;11484;50.858;4.384;2022-08-01T04:59:29;21.50;99.90
22635;DHT22;11484;50.858;4.384;2022-08-01T05:02:16;21.60;99.90
22635;DHT22;11484;50.858;4.384;2022-08-01T05:04:44;21.60;99.90
22635;DHT22;11484;50.858;4.384;2022-08-01T05:07:11;21.60;99.90
22635;DHT22;11484;50.858;4.384;2022-08-01T05:09:38;21.60;99.90
22635;DHT22;11484;50.858;4.384;2022-08-01T05:12:07;21.70;99.90
22635;DHT22;11484;50.858;4.384;2022-08-01T05:14:35;21.70;99.90
22635;DHT22;11484;50.858;4.384;2022-08-01T05:17:03;21.80;99.90
22635;DHT22;11484;50.858;4.384;2022-08-01T05:19:37;21.80;99.90
22635;DHT22;11484;50.858;4.384;2022-08-01T05:22:04;21.90;99.90
22635;DHT22;11484;50.858;4.384;2022-08-01T05:24:31;21.90;99.90
22635;DHT22;11484;50.858;4.384;2022-08-01T05:26:58;21.90;99.90
22635;DHT22;11484;50.858;4.384;2022-08-01T05:29:24;21.90;99.90
22635;DHT22;11484;50.858;4.384;2022-08-01T05:31:51;21.80;99.90
22635;DHT22;11484;50.858;4.384;2022-08-01T05:34:17;21.90;99.90
22635;DHT22;11484;50.858;4.384;2022-08-01T05:36:43;21.80;99.90
22635;DHT22;11484;50.858;4.384;2022-08-01T05:39:09;21.80;99.90
22635;DHT22;11484;50.858;4.384;2022-08-01T05:41:36;21.80;99.90
22635;DHT22;11484;50.858;4.384;2022-08-01T05:44:02;21.80;99.90
22635;DHT22;11484;50.858;4.384;2022-08-01T05:46:28;21.80;99.90
22635;DHT22;11484;50.858;4.384;2022-08-01T05:48:56;21.80;99.90
22635;DHT22;11484;50.858;4.384;2022-08-01T05:51:22;21.90;99.90
22635;DHT22;11484;50.858;4.384;2022-08-01T05:53:48;21.90;99.90
22635;DHT22;11484;50.858;4.384;2022-08-01T05:56:14;21.90;99.90
22635;DHT22;11484;50.858;4.384;2022-08-01T05:58:40;22.00;99.90
22635;DHT22;11484;50.858;4.384;2022-08-01T06:01:06;22.00;99.90
22635;DHT22;11484;50.858;4.384;2022-08-01T06:03:31;22.10;99.90
22635;DHT22;11484;50.858;4.384;2022-08-01T06:06:02;22.10;99.90
22635;DHT22;11484;50.858;4.384;2022-08-01T06:08:28;22.10;99.90
22635;DHT22;11484;50.858;4.384;2022-08-01T06:10:53;22.20;99.90
22635;DHT22;11484;50.858;4.384;2022-08-01T06:13:19;22.30;99.90
22635;DHT22;11484;50.858;4.384;2022-08-01T06:15:46;22.30;99.90
22635;DHT22;11484;50.858;4.384;2022-08-01T06:18:12;22.40;99.90
22635;DHT22;11484;50.858;4.384;2022-08-01T06:20:38;22.40;99.90
22635;DHT22;11484;50.858;4.384;2022-08-01T06:23:04;22.50;99.90
22635;DHT22;11484;50.858;4.384;2022-08-01T06:25:30;22.50;99.90
22635;DHT22;11484;50.858;4.384;2022-08-01T06:27:55;22.50;99.90
22635;DHT22;11484;50.858;4.384;2022-08-01T06:30:21;22.50;99.90
22635;DHT22;11484;50.858;4.384;2022-08-01T06:32:47;22.60;99.90
22635;DHT22;11484;50.858;4.384;2022-08-01T06:35:14;22.60;99.90
22635;DHT22;11484;50.858;4.384;2022-08-01T06:37:40;22.70;99.90
22635;DHT22;11484;50.858;4.384;2022-08-01T06:40:08;22.80;99.90
22635;DHT22;11484;50.858;4.384;2022-08-01T06:42:35;22.90;99.90
22635;DHT22;11484;50.858;4.384;2022-08-01T06:45:07;23.00;99.90
22635;DHT22;11484;50.858;4.384;2022-08-01T06:47:33;23.10;99.90
22635;DHT22;11484;50.858;4.384;2022-08-01T06:49:59;23.20;99.90
22635;DHT22;11484;50.858;4.384;2022-08-01T06:52:26;23.30;99.90
22635;DHT22;11484;50.858;4.384;2022-08-01T06:54:52;23.40;99.90
22635;DHT22;11484;50.858;4.384;2022-08-01T06:57:18;23.50;99.90
22635;DHT22;11484;50.858;4.384;2022-08-01T06:59:44;23.60;99.90
22635;DHT22;11484;50.858;4.384;2022-08-01T07:02:09;23.70;99.90
22635;DHT22;11484;50.858;4.384;2022-08-01T07:04:35;23.70;99.90
22635;DHT22;11484;50.858;4.384;2022-08-01T07:07:01;23.90;99.90
22635;DHT22;11484;50.858;4.384;2022-08-01T07:09:29;23.90;99.90
22635;DHT22;11484;50.858;4.384;2022-08-01T07:11:56;24.00;99.90
22635;DHT22;11484;50.858;4.384;2022-08-01T07:14:23;24.00;99.90
22635;DHT22;11484;50.858;4.384;2022-08-01T07:16:50;24.10;99.90
22635;DHT22;11484;50.858;4.384;2022-08-01T07:19:16;24.10;99.90
22635;DHT22;11484;50.858;4.384;2022-08-01T07:21:48;24.30;99.90
22635;DHT22;11484;50.858;4.384;2022-08-01T07:24:14;24.60;99.90
22635;DHT22;11484;50.858;4.384;2022-08-01T07:26:41;24.80;99.90
22635;DHT22;11484;50.858;4.384;2022-08-01T07:29:07;24.80;99.90
22635;DHT22;11484;50.858;4.384;2022-08-01T07:31:35;24.80;99.90
22635;DHT22;11484;50.858;4.384;2022-08-01T07:34:02;24.80;99.90
22635;DHT22;11484;50.858;4.384;2022-08-01T07:36:27;24.90;99.90
22635;DHT22;11484;50.858;4.384;2022-08-01T07:38:53;24.90;99.90
22635;DHT22;11484;50.858;4.384;2022-08-01T07:41:19;25.00;99.90
22635;DHT22;11484;50.858;4.384;2022-08-01T07:43:46;25.20;99.90
22635;DHT22;11484;50.858;4.384;2022-08-01T07:46:14;25.40;99.90
22635;DHT22;11484;50.858;4.384;2022-08-01T07:48:44;25.50;99.90
22635;DHT22;11484;50.858;4.384;2022-08-01T07:51:10;25.50;99.90
22635;DHT22;11484;50.858;4.384;2022-08-01T07:53:37;25.70;99.70
22635;DHT22;11484;50.858;4.384;2022-08-01T07:56:04;25.80;99.00
22635;DHT22;11484;50.858;4.384;2022-08-01T07:58:38;25.80;98.30
22635;DHT22;11484;50.858;4.384;2022-08-01T08:01:05;25.90;97.40
22635;DHT22;11484;50.858;4.384;2022-08-01T08:03:31;25.80;97.30
22635;DHT22;11484;50.858;4.384;2022-08-01T08:05:57;25.80;97.10
22635;DHT22;11484;50.858;4.384;2022-08-01T08:08:22;25.90;97.20
22635;DHT22;11484;50.858;4.384;2022-08-01T08:10:55;25.90;97.20
22635;DHT22;11484;50.858;4.384;2022-08-01T08:13:21;26.20;96.70
22635;DHT22;11484;50.858;4.384;2022-08-01T08:15:48;27.30;95.50
22635;DHT22;11484;50.858;4.384;2022-08-01T08:18:14;28.50;92.50
22635;DHT22;11484;50.858;4.384;2022-08-01T08:20:40;28.80;91.40
22635;DHT22;11484;50.858;4.384;2022-08-01T08:23:06;28.80;90.30
22635;DHT22;11484;50.858;4.384;2022-08-01T08:25:51;28.60;90.20
22635;DHT22;11484;50.858;4.384;2022-08-01T08:28:19;28.20;90.40
22635;DHT22;11484;50.858;4.384;2022-08-01T08:30:46;27.80;90.60
22635;DHT22;11484;50.858;4.384;2022-08-01T08:33:11;27.60;91.10
22635;DHT22;11484;50.858;4.384;2022-08-01T08:35:39;27.30;91.60
22635;DHT22;11484;50.858;4.384;2022-08-01T08:38:07;27.30;91.60
22635;DHT22;11484;50.858;4.384;2022-08-01T08:40:35;27.40;91.40
22635;DHT22;11484;50.858;4.384;2022-08-01T08:43:04;28.40;89.90
22635;DHT22;11484;50.858;4.384;2022-08-01T08:45:30;29.50;85.30
22635;DHT22;11484;50.858;4.384;2022-08-01T08:47:56;30.80;78.70
22635;DHT22;11484;50.858;4.384;2022-08-01T08:50:25;31.10;75.30
22635;DHT22;11484;50.858;4.384;2022-08-01T08:52:53;30.90;74.20
22635;DHT22;11484;50.858;4.384;2022-08-01T08:55:20;30.60;74.30
22635;DHT22;11484;50.858;4.384;2022-08-01T08:57:46;30.30;74.70
22635;DHT22;11484;50.858;4.384;2022-08-01T09:00:13;30.30;75.50
22635;DHT22;11484;50.858;4.384;2022-08-01T09:02:44;30.30;75.10
22635;DHT22;11484;50.858;4.384;2022-08-01T09:05:10;30.30;74.70
22635;DHT22;11484;50.858;4.384;2022-08-01T09:07:37;30.30;74.90
22635;DHT22;11484;50.858;4.384;2022-08-01T09:10:03;30.00;74.90
22635;DHT22;11484;50.858;4.384;2022-08-01T09:12:29;29.60;75.00
22635;DHT22;11484;50.858;4.384;2022-08-01T09:14:55;29.20;76.30
22635;DHT22;11484;50.858;4.384;2022-08-01T09:17:23;28.90;77.70
22635;DHT22;11484;50.858;4.384;2022-08-01T09:19:52;28.60;78.50
22635;DHT22;11484;50.858;4.384;2022-08-01T09:22:21;28.40;78.00
22635;DHT22;11484;50.858;4.384;2022-08-01T09:25:01;28.10;78.20
22635;DHT22;11484;50.858;4.384;2022-08-01T09:27:27;28.20;78.60
22635;DHT22;11484;50.858;4.384;2022-08-01T09:29:53;28.30;78.70
22635;DHT22;11484;50.858;4.384;2022-08-01T09:32:20;28.20;80.40
22635;DHT22;11484;50.858;4.384;2022-08-01T09:34:46;28.00;82.00
22635;DHT22;11484;50.858;4.384;2022-08-01T09:37:13;27.50;83.60
22635;DHT22;11484;50.858;4.384;2022-08-01T09:39:43;27.40;84.60
22635;DHT22;11484;50.858;4.384;2022-08-01T09:42:24;27.90;84.20
22635;DHT22;11484;50.858;4.384;2022-08-01T09:44:51;29.30;79.50
22635;DHT22;11484;50.858;4.384;2022-08-01T09:47:19;30.50;75.80
22635;DHT22;11484;50.858;4.384;2022-08-01T09:49:56;31.70;71.70
22635;DHT22;11484;50.858;4.384;2022-08-01T09:52:24;32.90;66.70
22635;DHT22;11484;50.858;4.384;2022-08-01T09:55:00;33.60;64.10
22635;DHT22;11484;50.858;4.384;2022-08-01T09:57:28;34.30;60.60
22635;DHT22;11484;50.858;4.384;2022-08-01T09:59:56;34.40;58.30
22635;DHT22;11484;50.858;4.384;2022-08-01T10:02:39;33.10;58.30
22635;DHT22;11484;50.858;4.384;2022-08-01T10:05:10;32.10;59.90
22635;DHT22;11484;50.858;4.384;2022-08-01T10:10:21;31.80;61.20
22635;DHT22;11484;50.858;4.384;2022-08-01T10:12:47;32.20;59.30
22635;DHT22;11484;50.858;4.384;2022-08-01T10:15:17;32.00;59.80
22635;DHT22;11484;50.858;4.384;2022-08-01T10:18:00;31.30;61.10
22635;DHT22;11484;50.858;4.384;2022-08-01T10:20:28;30.40;63.70
22635;DHT22;11484;50.858;4.384;2022-08-01T10:22:58;29.80;65.50
22635;DHT22;11484;50.858;4.384;2022-08-01T10:25:28;29.80;65.50
22635;DHT22;11484;50.858;4.384;2022-08-01T10:27:55;30.20;64.30
22635;DHT22;11484;50.858;4.384;2022-08-01T10:30:23;30.30;63.20
22635;DHT22;11484;50.858;4.384;2022-08-01T10:32:51;30.20;63.20
22635;DHT22;11484;50.858;4.384;2022-08-01T10:35:19;30.30;63.30
22635;DHT22;11484;50.858;4.384;2022-08-01T10:37:46;30.30;62.80
22635;DHT22;11484;50.858;4.384;2022-08-01T10:40:13;30.20;63.50
22635;DHT22;11484;50.858;4.384;2022-08-01T10:42:41;30.10;64.00
22635;DHT22;11484;50.858;4.384;2022-08-01T10:45:12;30.00;64.30
22635;DHT22;11484;50.858;4.384;2022-08-01T10:50:41;29.80;63.90
22635;DHT22;11484;50.858;4.384;2022-08-01T10:53:17;29.90;64.60
22635;DHT22;11484;50.858;4.384;2022-08-01T11:01:26;29.40;65.50
22635;DHT22;11484;50.858;4.384;2022-08-01T11:04:11;29.30;64.60
22635;DHT22;11484;50.858;4.384;2022-08-01T11:12:07;29.30;64.30
22635;DHT22;11484;50.858;4.384;2022-08-01T11:17:37;29.20;62.10
22635;DHT22;11484;50.858;4.384;2022-08-01T11:20:12;29.30;62.10
22635;DHT22;11484;50.858;4.384;2022-08-01T11:28:24;29.10;62.00
22635;DHT22;11484;50.858;4.384;2022-08-01T11:30:54;29.10;61.90
22635;DHT22;11484;50.858;4.384;2022-08-01T11:36:24;29.00;62.30
22635;DHT22;11484;50.858;4.384;2022-08-01T11:41:32;29.00;63.00
22635;DHT22;11484;50.858;4.384;2022-08-01T11:52:07;28.80;64.60
22635;DHT22;11484;50.858;4.384;2022-08-01T11:55:04;28.80;63.40
22635;DHT22;11484;50.858;4.384;2022-08-01T11:57:30;28.80;63.40
22635;DHT22;11484;50.858;4.384;2022-08-01T11:59:59;28.70;62.50
22635;DHT22;11484;50.858;4.384;2022-08-01T12:02:27;28.50;63.10
22635;DHT22;11484;50.858;4.384;2022-08-01T12:07:29;28.50;63.20
22635;DHT22;11484;50.858;4.384;2022-08-01T12:10:03;28.40;63.40
22635;DHT22;11484;50.858;4.384;2022-08-01T12:12:32;28.40;63.30
22635;DHT22;11484;50.858;4.384;2022-08-01T12:15:02;28.30;63.90
22635;DHT22;11484;50.858;4.384;2022-08-01T12:17:29;28.40;63.60
22635;DHT22;11484;50.858;4.384;2022-08-01T12:19:56;28.40;63.90
22635;DHT22;11484;50.858;4.384;2022-08-01T12:22:23;28.40;64.10
22635;DHT22;11484;50.858;4.384;2022-08-01T12:24:49;28.50;64.10
22635;DHT22;11484;50.858;4.384;2022-08-01T12:27:29;28.50;64.40
22635;DHT22;11484;50.858;4.384;2022-08-01T12:29:56;28.60;64.00
22635;DHT22;11484;50.858;4.384;2022-08-01T12:32:25;28.70;62.30
22635;DHT22;11484;50.858;4.384;2022-08-01T12:34:54;28.70;62.50
22635;DHT22;11484;50.858;4.384;2022-08-01T12:37:20;28.80;63.00
22635;DHT22;11484;50.858;4.384;2022-08-01T12:39:46;28.80;62.20
22635;DHT22;11484;50.858;4.384;2022-08-01T12:42:13;28.90;61.90
22635;DHT22;11484;50.858;4.384;2022-08-01T12:44:40;28.90;61.10
22635;DHT22;11484;50.858;4.384;2022-08-01T12:47:08;28.80;61.90
22635;DHT22;11484;50.858;4.384;2022-08-01T12:49:37;28.80;61.70
22635;DHT22;11484;50.858;4.384;2022-08-01T12:52:03;28.90;60.60
22635;DHT22;11484;50.858;4.384;2022-08-01T12:54:29;28.80;60.80
22635;DHT22;11484;50.858;4.384;2022-08-01T12:56:55;28.80;60.90
22635;DHT22;11484;50.858;4.384;2022-08-01T12:59:24;28.80;61.00
22635;DHT22;11484;50.858;4.384;2022-08-01T13:01:54;28.80;60.10
22635;DHT22;11484;50.858;4.384;2022-08-01T13:04:22;28.80;60.10
22635;DHT22;11484;50.858;4.384;2022-08-01T13:06:52;28.70;61.10
22635;DHT22;11484;50.858;4.384;2022-08-01T13:09:18;28.70;61.60
22635;DHT22;11484;50.858;4.384;2022-08-01T13:11:44;28.70;61.80
22635;DHT22;11484;50.858;4.384;2022-08-01T13:14:26;28.80;61.80
22635;DHT22;11484;50.858;4.384;2022-08-01T13:16:52;28.70;61.90
22635;DHT22;11484;50.858;4.384;2022-08-01T13:19:18;28.60;62.30
22635;DHT22;11484;50.858;4.384;2022-08-01T13:21:56;28.50;62.00
22635;DHT22;11484;50.858;4.384;2022-08-01T13:24:27;28.50;62.80
22635;DHT22;11484;50.858;4.384;2022-08-01T13:26:56;28.40;61.60
22635;DHT22;11484;50.858;4.384;2022-08-01T13:29:36;28.30;62.20
22635;DHT22;11484;50.858;4.384;2022-08-01T13:32:19;28.30;62.00
22635;DHT22;11484;50.858;4.384;2022-08-01T13:34:45;28.40;61.40
22635;DHT22;11484;50.858;4.384;2022-08-01T13:37:11;28.30;61.20
22635;DHT22;11484;50.858;4.384;2022-08-01T13:39:36;28.10;60.40
22635;DHT22;11484;50.858;4.384;2022-08-01T13:42:08;28.10;60.90
22635;DHT22;11484;50.858;4.384;2022-08-01T13:44:41;28.00;59.30
22635;DHT22;11484;50.858;4.384;2022-08-01T13:47:07;27.70;59.70
22635;DHT22;11484;50.858;4.384;2022-08-01T13:49:34;27.70;61.00
22635;DHT22;11484;50.858;4.384;2022-08-01T13:52:01;27.70;60.90
22635;DHT22;11484;50.858;4.384;2022-08-01T13:54:26;27.70;60.30
22635;DHT22;11484;50.858;4.384;2022-08-01T13:56:53;27.70;58.90
22635;DHT22;11484;50.858;4.384;2022-08-01T13:59:20;27.60;59.60
22635;DHT22;11484;50.858;4.384;2022-08-01T14:01:46;27.60;59.80
22635;DHT22;11484;50.858;4.384;2022-08-01T14:04:13;27.60;59.30
22635;DHT22;11484;50.858;4.384;2022-08-01T14:06:40;27.60;60.00
22635;DHT22;11484;50.858;4.384;2022-08-01T14:09:06;27.60;60.20
22635;DHT22;11484;50.858;4.384;2022-08-01T14:11:32;27.60;59.60
22635;DHT22;11484;50.858;4.384;2022-08-01T14:13:58;27.60;59.80
22635;DHT22;11484;50.858;4.384;2022-08-01T14:16:24;27.60;60.30
22635;DHT22;11484;50.858;4.384;2022-08-01T14:18:50;27.60;59.70
22635;DHT22;11484;50.858;4.384;2022-08-01T14:21:16;27.60;59.70
22635;DHT22;11484;50.858;4.384;2022-08-01T14:23:42;27.60;59.60
22635;DHT22;11484;50.858;4.384;2022-08-01T14:26:08;27.60;59.10
22635;DHT22;11484;50.858;4.384;2022-08-01T14:28:35;27.60;59.00
22635;DHT22;11484;50.858;4.384;2022-08-01T14:31:02;27.60;58.50
22635;DHT22;11484;50.858;4.384;2022-08-01T14:33:28;27.40;59.10
22635;DHT22;11484;50.858;4.384;2022-08-01T14:35:56;27.30;59.20
22635;DHT22;11484;50.858;4.384;2022-08-01T14:38:23;27.40;59.10
22635;DHT22;11484;50.858;4.384;2022-08-01T14:40:51;27.50;59.50
22635;DHT22;11484;50.858;4.384;2022-08-01T14:43:20;27.60;59.00
22635;DHT22;11484;50.858;4.384;2022-08-01T14:45:47;27.80;59.00
22635;DHT22;11484;50.858;4.384;2022-08-01T14:48:18;27.80;58.00
22635;DHT22;11484;50.858;4.384;2022-08-01T14:50:44;27.80;57.70
22635;DHT22;11484;50.858;4.384;2022-08-01T14:53:10;27.80;58.30
22635;DHT22;11484;50.858;4.384;2022-08-01T14:55:36;27.90;58.20
22635;DHT22;11484;50.858;4.384;2022-08-01T14:58:02;27.90;57.90
22635;DHT22;11484;50.858;4.384;2022-08-01T15:00:28;27.90;57.50
22635;DHT22;11484;50.858;4.384;2022-08-01T15:02:55;27.80;57.40
22635;DHT22;11484;50.858;4.384;2022-08-01T15:05:21;27.70;57.50
22635;DHT22;11484;50.858;4.384;2022-08-01T15:07:46;27.60;57.60
22635;DHT22;11484;50.858;4.384;2022-08-01T15:10:13;27.50;58.40
22635;DHT22;11484;50.858;4.384;2022-08-01T15:12:42;27.50;58.50
22635;DHT22;11484;50.858;4.384;2022-08-01T15:15:09;27.40;58.30
22635;DHT22;11484;50.858;4.384;2022-08-01T15:17:34;27.50;58.30
22635;DHT22;11484;50.858;4.384;2022-08-01T15:20:03;27.40;58.50
22635;DHT22;11484;50.858;4.384;2022-08-01T15:22:30;27.40;58.40
22635;DHT22;11484;50.858;4.384;2022-08-01T15:24:59;27.40;58.60
22635;DHT22;11484;50.858;4.384;2022-08-01T15:27:25;27.40;57.90
22635;DHT22;11484;50.858;4.384;2022-08-01T15:29:53;27.40;58.00
22635;DHT22;11484;50.858;4.384;2022-08-01T15:32:20;27.40;57.90
22635;DHT22;11484;50.858;4.384;2022-08-01T15:34:46;27.40;58.00
22635;DHT22;11484;50.858;4.384;2022-08-01T15:37:12;27.40;57.60
22635;DHT22;11484;50.858;4.384;2022-08-01T15:39:38;27.40;57.40
22635;DHT22;11484;50.858;4.384;2022-08-01T15:42:09;27.50;57.60
22635;DHT22;11484;50.858;4.384;2022-08-01T15:44:35;27.40;57.20
22635;DHT22;11484;50.858;4.384;2022-08-01T15:47:02;27.20;58.10
22635;DHT22;11484;50.858;4.384;2022-08-01T15:49:30;27.20;58.50
22635;DHT22;11484;50.858;4.384;2022-08-01T15:51:56;27.30;58.20
22635;DHT22;11484;50.858;4.384;2022-08-01T15:54:22;27.30;58.20
22635;DHT22;11484;50.858;4.384;2022-08-01T15:56:48;27.40;58.10
22635;DHT22;11484;50.858;4.384;2022-08-01T15:59:15;27.30;58.30
22635;DHT22;11484;50.858;4.384;2022-08-01T16:01:41;27.30;58.20
22635;DHT22;11484;50.858;4.384;2022-08-01T16:04:07;27.30;57.60
22635;DHT22;11484;50.858;4.384;2022-08-01T16:06:34;27.30;57.30
22635;DHT22;11484;50.858;4.384;2022-08-01T16:09:00;27.30;57.30
22635;DHT22;11484;50.858;4.384;2022-08-01T16:11:25;27.30;57.60
22635;DHT22;11484;50.858;4.384;2022-08-01T16:13:53;27.30;57.70
22635;DHT22;11484;50.858;4.384;2022-08-01T16:16:20;27.30;57.70
22635;DHT22;11484;50.858;4.384;2022-08-01T16:18:46;27.30;57.70
22635;DHT22;11484;50.858;4.384;2022-08-01T16:21:12;27.20;57.60
22635;DHT22;11484;50.858;4.384;2022-08-01T16:23:39;27.40;57.60
22635;DHT22;11484;50.858;4.384;2022-08-01T16:26:06;27.40;57.20
22635;DHT22;11484;50.858;4.384;2022-08-01T16:28:33;27.20;56.80
22635;DHT22;11484;50.858;4.384;2022-08-01T16:31:00;27.10;57.00
22635;DHT22;11484;50.858;4.384;2022-08-01T16:33:27;27.00;57.00
22635;DHT22;11484;50.858;4.384;2022-08-01T16:35:54;27.00;57.70